createdAt,value
2023-06-22T00:00:22.553Z,19.63
2023-06-22T00:03:30.921Z,19.59
2023-06-22T00:06:39.074Z,19.49
2023-06-22T00:09:48.661Z,19.59
2023-06-22T00:12:56.847Z,19.43
2023-06-22T00:16:05.785Z,19.33
2023-06-22T00:19:13.943Z,19.46
2023-06-22T00:22:29.155Z,19.48
2023-06-22T00:25:41.642Z,19.50
2023-06-22T00:28:49.890Z,19.62
2023-06-22T00:31:58.098Z,19.67
2023-06-22T00:35:07.375Z,19.84
2023-06-22T00:38:15.784Z,19.84
2023-06-22T00:41:28.371Z,19.73
2023-06-22T00:44:37.578Z,19.78
2023-06-22T00:47:46.776Z,19.79
2023-06-22T00:50:57.074Z,19.74
2023-06-22T00:54:07.308Z,19.66
2023-06-22T00:57:17.827Z,19.62
2023-06-22T01:00:27.270Z,19.51
2023-06-22T01:03:35.870Z,19.36
2023-06-22T01:06:56.845Z,19.44
2023-06-22T01:10:12.598Z,19.36
2023-06-22T01:13:34.764Z,19.27
2023-06-22T01:16:47.232Z,19.16
2023-06-22T01:19:58.209Z,19.07
2023-06-22T01:23:19.880Z,19.00
2023-06-22T01:26:41.137Z,18.97
2023-06-22T01:29:53.343Z,19.05
2023-06-22T01:33:04.157Z,18.94
2023-06-22T01:36:13.489Z,19.02
2023-06-22T01:39:23.441Z,19.00
2023-06-22T01:42:36.400Z,18.93
2023-06-22T01:45:46.939Z,19.09
2023-06-22T01:48:55.542Z,18.94
2023-06-22T01:52:05.325Z,18.91
2023-06-22T01:55:13.510Z,18.77
2023-06-22T01:58:25.453Z,18.60
2023-06-22T02:01:45.690Z,18.60
2023-06-22T02:05:01.232Z,18.61
2023-06-22T02:08:17.730Z,18.62
2023-06-22T02:11:29.903Z,18.65
2023-06-22T02:14:39.856Z,18.50
2023-06-22T02:17:50.461Z,18.58
2023-06-22T02:20:58.801Z,18.44
2023-06-22T02:24:07.332Z,18.43
2023-06-22T02:27:15.544Z,18.46
2023-06-22T02:30:23.774Z,18.27
2023-06-22T02:33:33.328Z,18.21
2023-06-22T02:36:41.522Z,18.28
2023-06-22T02:39:49.792Z,18.25
2023-06-22T02:43:02.687Z,18.31
2023-06-22T02:46:11.014Z,18.38
2023-06-22T02:49:20.615Z,18.31
2023-06-22T02:52:29.100Z,18.27
2023-06-22T02:55:37.339Z,18.22
2023-06-22T02:58:45.582Z,18.28
2023-06-22T03:01:54.435Z,18.19
2023-06-22T03:05:14.516Z,18.07
2023-06-22T03:08:22.744Z,18.04
2023-06-22T03:11:31.476Z,18.10
2023-06-22T03:14:40.620Z,17.92
2023-06-22T03:17:49.190Z,17.89
2023-06-22T03:20:58.947Z,17.90
2023-06-22T03:24:07.830Z,17.86
2023-06-22T03:27:16.304Z,17.94
2023-06-22T03:30:24.465Z,17.92
2023-06-22T03:33:33.030Z,17.93
2023-06-22T03:36:43.844Z,17.94
2023-06-22T03:39:52.070Z,17.97
2023-06-22T03:43:00.311Z,17.99
2023-06-22T03:46:08.984Z,18.06
2023-06-22T03:49:17.633Z,18.13
2023-06-22T03:52:27.348Z,18.18
2023-06-22T03:55:36.616Z,18.33
2023-06-22T03:58:46.166Z,18.40
2023-06-22T04:01:54.452Z,18.51
2023-06-22T04:05:04.833Z,18.65
2023-06-22T04:08:15.521Z,18.86
2023-06-22T04:11:25.746Z,18.95
2023-06-22T04:14:33.933Z,18.99
2023-06-22T04:17:42.215Z,19.19
2023-06-22T04:20:50.545Z,19.31
2023-06-22T04:24:00.070Z,19.47
2023-06-22T04:27:08.448Z,19.55
2023-06-22T04:30:17.504Z,19.72
2023-06-22T04:33:25.810Z,19.70
2023-06-22T04:36:39.517Z,19.80
2023-06-22T04:39:49.142Z,20.07
2023-06-22T04:42:57.394Z,20.24
2023-06-22T04:46:05.583Z,20.39
2023-06-22T04:49:14.018Z,20.53
2023-06-22T04:52:22.632Z,20.69
2023-06-22T04:55:32.185Z,20.83
2023-06-22T04:58:40.312Z,20.94
2023-06-22T05:01:48.473Z,21.05
2023-06-22T05:04:58.267Z,21.25
2023-06-22T05:08:07.916Z,21.23
2023-06-22T05:11:17.634Z,21.13
2023-06-22T05:14:25.942Z,21.19
2023-06-22T05:17:34.214Z,21.21
2023-06-22T05:20:42.395Z,21.23
2023-06-22T05:23:50.549Z,21.30
2023-06-22T05:27:01.880Z,21.42
2023-06-22T05:30:12.817Z,21.58
2023-06-22T05:33:22.707Z,21.85
2023-06-22T05:36:30.995Z,21.82
2023-06-22T05:39:39.925Z,22.01
2023-06-22T05:42:50.495Z,22.10
2023-06-22T05:45:59.318Z,22.29
2023-06-22T05:49:07.500Z,22.42
2023-06-22T05:52:15.737Z,22.40
2023-06-22T05:55:24.183Z,22.40
2023-06-22T05:58:33.693Z,22.53
2023-06-22T06:01:41.985Z,22.68
2023-06-22T06:04:52.251Z,22.79
2023-06-22T06:08:01.958Z,22.87
2023-06-22T06:11:10.828Z,22.84
2023-06-22T06:14:21.241Z,22.67
2023-06-22T06:17:29.644Z,23.26
2023-06-22T06:20:37.937Z,25.28
2023-06-22T06:23:46.125Z,27.13
2023-06-22T06:26:54.414Z,28.70
2023-06-22T06:30:04.428Z,29.20
2023-06-22T06:33:13.066Z,28.67
2023-06-22T06:36:21.314Z,29.67
2023-06-22T06:39:29.556Z,29.53
2023-06-22T06:42:38.853Z,28.72
2023-06-22T06:45:52.733Z,27.07
2023-06-22T06:49:01.585Z,28.44
2023-06-22T06:52:10.176Z,30.09
2023-06-22T06:55:20.247Z,31.25
2023-06-22T06:58:29.753Z,31.07
2023-06-22T07:01:39.442Z,31.56
2023-06-22T07:04:48.082Z,30.44
2023-06-22T07:07:56.588Z,31.19
2023-06-22T07:11:05.231Z,31.02
2023-06-22T07:14:13.751Z,30.97
2023-06-22T07:17:24.734Z,31.73
2023-06-22T07:20:33.305Z,31.19
2023-06-22T07:23:41.883Z,29.42
2023-06-22T07:26:51.088Z,31.24
2023-06-22T07:29:59.308Z,33.01
2023-06-22T07:33:10.074Z,32.68
2023-06-22T07:36:19.419Z,29.68
2023-06-22T07:39:27.792Z,29.87
2023-06-22T07:42:36.288Z,30.41
2023-06-22T07:45:53.373Z,31.52
2023-06-22T07:49:03.244Z,33.63
2023-06-22T07:52:12.086Z,34.59
2023-06-22T07:55:20.992Z,34.78
2023-06-22T07:58:29.238Z,35.77
2023-06-22T08:01:37.448Z,36.14
2023-06-22T08:04:47.016Z,35.41
2023-06-22T08:07:56.105Z,35.28
2023-06-22T08:11:04.355Z,33.92
2023-06-22T08:14:12.543Z,33.66
2023-06-22T08:17:20.700Z,34.83
2023-06-22T08:20:30.425Z,35.69
2023-06-22T08:23:38.678Z,35.78
2023-06-22T08:26:47.115Z,35.72
2023-06-22T08:29:59.229Z,36.37
2023-06-22T08:33:07.539Z,35.68
2023-06-22T08:36:17.384Z,35.48
2023-06-22T08:39:25.705Z,34.10
2023-06-22T08:42:33.943Z,34.65
2023-06-22T08:45:42.166Z,33.85
2023-06-22T08:48:52.483Z,33.98
2023-06-22T08:52:01.964Z,34.62
2023-06-22T08:55:11.746Z,35.53
2023-06-22T08:58:21.359Z,36.12
2023-06-22T09:01:30.071Z,34.75
2023-06-22T09:04:38.396Z,35.46
2023-06-22T09:07:48.211Z,35.38
2023-06-22T09:10:56.372Z,35.15
2023-06-22T09:14:04.871Z,34.87
2023-06-22T09:17:14.449Z,33.55
2023-06-22T09:20:22.689Z,33.79
2023-06-22T09:23:32.191Z,33.38
2023-06-22T09:26:40.495Z,32.97
2023-06-22T09:29:49.684Z,32.37
2023-06-22T09:32:57.900Z,33.27
2023-06-22T09:36:08.275Z,33.95
2023-06-22T09:39:18.005Z,33.61
2023-06-22T09:42:26.184Z,32.58
2023-06-22T09:45:34.364Z,32.03
2023-06-22T09:48:42.521Z,32.37
2023-06-22T09:51:52.027Z,32.53
2023-06-22T09:55:01.579Z,33.09
2023-06-22T09:58:10.748Z,33.17
2023-06-22T10:01:18.938Z,33.06
2023-06-22T10:04:27.847Z,33.59
2023-06-22T10:07:40.913Z,33.42
2023-06-22T10:10:51.827Z,33.98
2023-06-22T10:14:01.928Z,33.99
2023-06-22T10:17:10.161Z,33.95
2023-06-22T10:20:19.436Z,34.21
2023-06-22T10:23:27.803Z,34.08
2023-06-22T10:26:38.233Z,33.84
2023-06-22T10:29:46.922Z,33.92
2023-06-22T10:32:55.105Z,33.83
2023-06-22T10:36:03.306Z,33.56
2023-06-22T10:39:11.429Z,33.73
2023-06-22T10:42:20.929Z,33.85
2023-06-22T10:45:30.017Z,33.99
2023-06-22T10:48:38.761Z,33.73
2023-06-22T10:51:47.039Z,33.84
2023-06-22T10:54:55.491Z,33.97
2023-06-22T10:58:06.422Z,33.88
2023-06-22T11:01:30.566Z,34.17
2023-06-22T11:04:43.342Z,33.88
2023-06-22T11:07:51.837Z,34.17
2023-06-22T11:11:00.183Z,33.69
2023-06-22T11:14:09.868Z,33.02
2023-06-22T11:17:18.244Z,33.11
2023-06-22T11:20:26.499Z,33.23
2023-06-22T11:23:34.658Z,33.47
2023-06-22T11:26:43.231Z,33.05
2023-06-22T11:29:54.089Z,33.49
2023-06-22T11:33:02.744Z,33.33
2023-06-22T11:36:12.200Z,33.36
2023-06-22T11:39:26.644Z,33.37
2023-06-22T11:42:42.481Z,33.42
2023-06-22T11:45:52.150Z,33.23
2023-06-22T11:49:00.537Z,32.95
2023-06-22T11:52:09.473Z,33.59
2023-06-22T11:55:18.049Z,33.74
2023-06-22T11:58:26.309Z,33.70
2023-06-22T12:01:36.201Z,33.78
2023-06-22T12:04:44.401Z,33.86
2023-06-22T12:07:55.191Z,33.94
2023-06-22T12:11:03.537Z,33.50
2023-06-22T12:14:11.696Z,33.53
2023-06-22T12:17:21.293Z,33.40
2023-06-22T12:20:29.887Z,33.68
2023-06-22T12:23:38.343Z,33.74
2023-06-22T12:26:46.555Z,33.73
2023-06-22T12:29:54.764Z,34.13
2023-06-22T12:33:04.485Z,34.38
2023-06-22T12:36:12.941Z,34.01
2023-06-22T12:39:21.105Z,34.11
2023-06-22T12:42:29.287Z,34.00
2023-06-22T12:45:37.459Z,33.91
2023-06-22T12:48:46.919Z,34.16
2023-06-22T12:51:55.042Z,34.45
2023-06-22T12:55:03.221Z,34.79
2023-06-22T12:58:11.413Z,34.97
2023-06-22T13:01:20.193Z,34.90
2023-06-22T13:04:29.702Z,35.48
2023-06-22T13:07:37.808Z,36.06
2023-06-22T13:10:46.656Z,35.93
2023-06-22T13:13:54.796Z,35.45
2023-06-22T13:17:02.864Z,34.86
2023-06-22T13:20:13.321Z,34.51
2023-06-22T13:23:21.421Z,34.59
2023-06-22T13:26:31.334Z,34.85
2023-06-22T13:29:39.412Z,34.74
2023-06-22T13:32:47.587Z,34.98
2023-06-22T13:35:57.463Z,34.62
2023-06-22T13:39:05.735Z,34.70
2023-06-22T13:42:14.150Z,34.96
2023-06-22T13:45:22.292Z,35.36
2023-06-22T13:48:30.546Z,34.88
2023-06-22T13:51:40.135Z,35.11
2023-06-22T13:54:48.299Z,35.31
2023-06-22T13:57:56.405Z,35.03
2023-06-22T14:01:04.537Z,35.19
2023-06-22T14:04:12.895Z,35.38
2023-06-22T14:07:22.513Z,34.64
2023-06-22T14:10:30.772Z,34.61
2023-06-22T14:13:39.081Z,34.77
2023-06-22T14:16:47.299Z,34.85
2023-06-22T14:19:56.945Z,34.93
2023-06-22T14:23:06.590Z,34.99
2023-06-22T14:26:14.737Z,35.20
2023-06-22T14:29:23.026Z,34.85
2023-06-22T14:32:31.888Z,34.88
2023-06-22T14:35:40.059Z,34.83
2023-06-22T14:38:49.565Z,34.51
2023-06-22T14:41:57.669Z,34.75
2023-06-22T14:45:07.387Z,34.82
2023-06-22T14:48:15.529Z,35.05
2023-06-22T14:51:23.729Z,34.77
2023-06-22T14:54:33.260Z,34.82
2023-06-22T14:57:41.548Z,34.82
2023-06-22T15:00:50.099Z,34.55
2023-06-22T15:03:58.315Z,34.53
2023-06-22T15:07:07.318Z,34.80
2023-06-22T15:10:17.046Z,34.77
2023-06-22T15:13:25.497Z,34.61
2023-06-22T15:16:33.934Z,34.72
2023-06-22T15:19:42.289Z,34.81
2023-06-22T15:22:50.404Z,34.75
2023-06-22T15:26:00.886Z,34.55
2023-06-22T15:29:09.107Z,34.66
2023-06-22T15:32:17.495Z,34.37
2023-06-22T15:35:25.848Z,34.42
2023-06-22T15:38:34.727Z,34.38
2023-06-22T15:41:44.470Z,34.28
2023-06-22T15:44:52.586Z,34.39
2023-06-22T15:48:00.855Z,34.59
2023-06-22T15:51:09.147Z,34.62
2023-06-22T15:54:17.602Z,34.74
2023-06-22T15:57:28.360Z,34.81
2023-06-22T16:00:36.783Z,34.59
2023-06-22T16:03:45.224Z,34.35
2023-06-22T16:06:53.543Z,34.52
2023-06-22T16:10:01.747Z,34.64
2023-06-22T16:13:11.650Z,34.60
2023-06-22T16:16:20.112Z,34.62
2023-06-22T16:19:30.526Z,34.44
2023-06-22T16:22:38.862Z,34.54
2023-06-22T16:25:47.460Z,34.20
2023-06-22T16:28:57.176Z,33.53
2023-06-22T16:32:06.594Z,33.02
2023-06-22T16:35:16.730Z,32.59
2023-06-22T16:38:25.046Z,32.32
2023-06-22T16:41:33.317Z,32.15
2023-06-22T16:44:42.874Z,31.97
2023-06-22T16:47:53.679Z,31.77
2023-06-22T16:51:01.879Z,31.62
2023-06-22T16:54:10.420Z,31.43
2023-06-22T16:57:21.804Z,31.32
2023-06-22T17:00:31.605Z,31.24
2023-06-22T17:03:47.131Z,31.12
2023-06-22T17:07:03.196Z,31.07
2023-06-22T17:10:12.050Z,31.03
2023-06-22T17:13:20.698Z,30.77
2023-06-22T17:16:34.515Z,28.28
2023-06-22T17:19:42.801Z,23.89
2023-06-22T17:22:51.282Z,21.84
2023-06-22T17:26:04.603Z,19.55
2023-06-22T17:29:12.991Z,18.60
2023-06-22T17:32:24.492Z,18.25
2023-06-22T17:35:33.587Z,19.75
2023-06-22T17:38:42.287Z,20.12
2023-06-22T17:41:52.481Z,20.73
2023-06-22T17:45:04.086Z,20.44
2023-06-22T17:48:13.788Z,20.46
2023-06-22T17:51:22.212Z,20.40
2023-06-22T17:54:40.314Z,20.07
2023-06-22T17:57:59.230Z,19.97
2023-06-22T18:01:08.006Z,20.03
2023-06-22T18:04:20.850Z,20.08
2023-06-22T18:07:31.160Z,20.08
2023-06-22T18:10:42.268Z,20.22
2023-06-22T18:13:50.604Z,20.18
2023-06-22T18:17:01.813Z,19.98
2023-06-22T18:20:13.589Z,20.00
2023-06-22T18:23:22.908Z,20.13
2023-06-22T18:26:31.110Z,20.23
2023-06-22T18:29:41.426Z,20.34
2023-06-22T18:32:50.583Z,20.10
2023-06-22T18:36:01.334Z,20.02
2023-06-22T18:39:13.143Z,20.06
2023-06-22T18:42:23.127Z,20.05
2023-06-22T18:45:33.893Z,20.03
2023-06-22T18:48:42.638Z,19.84
2023-06-22T18:52:05.614Z,19.88
2023-06-22T18:55:15.747Z,19.80
2023-06-22T18:58:27.301Z,19.72
2023-06-22T19:01:35.510Z,19.67
2023-06-22T19:04:45.818Z,19.70
2023-06-22T19:08:03.933Z,19.46
2023-06-22T19:11:14.708Z,19.38
2023-06-22T19:14:25.277Z,19.54
2023-06-22T19:17:34.100Z,19.54
2023-06-22T19:20:42.913Z,19.66
2023-06-22T19:23:53.513Z,19.72
2023-06-22T19:27:02.992Z,19.56
2023-06-22T19:30:15.868Z,19.43
2023-06-22T19:33:26.751Z,19.35
2023-06-22T19:36:36.710Z,19.39
2023-06-22T19:39:47.922Z,19.42
2023-06-22T19:42:56.881Z,19.56
2023-06-22T19:46:05.334Z,19.60
2023-06-22T19:49:18.481Z,19.68
2023-06-22T19:52:26.970Z,19.76
2023-06-22T19:55:41.607Z,19.80
2023-06-22T19:58:50.153Z,19.78
2023-06-22T20:01:59.022Z,20.00
2023-06-22T20:05:09.458Z,19.95
2023-06-22T20:08:19.252Z,20.15
2023-06-22T20:11:32.971Z,20.30
2023-06-22T20:14:41.779Z,20.24
2023-06-22T20:18:03.841Z,20.42
2023-06-22T20:21:13.908Z,20.31
2023-06-22T20:24:22.363Z,20.30
2023-06-22T20:27:32.018Z,20.09
2023-06-22T20:30:42.010Z,19.78
2023-06-22T20:34:05.569Z,19.82
2023-06-22T20:37:15.531Z,19.86
2023-06-22T20:40:27.736Z,19.91
2023-06-22T20:43:39.159Z,19.96
2023-06-22T20:46:47.460Z,20.03
2023-06-22T20:49:59.018Z,19.99
2023-06-22T20:53:09.647Z,20.01
2023-06-22T20:56:18.900Z,19.97
2023-06-22T20:59:30.467Z,19.96
2023-06-22T21:02:39.817Z,20.07
2023-06-22T21:05:48.064Z,20.11
2023-06-22T21:08:57.047Z,20.01
2023-06-22T21:12:07.892Z,19.90
2023-06-22T21:15:20.395Z,19.92
2023-06-22T21:18:32.213Z,19.93
2023-06-22T21:21:40.648Z,19.73
2023-06-22T21:25:07.461Z,19.47
2023-06-22T21:28:16.087Z,19.36
2023-06-22T21:31:26.096Z,19.10
2023-06-22T21:34:34.334Z,19.14
2023-06-22T21:37:45.952Z,19.02
2023-06-22T21:40:54.388Z,19.20
2023-06-22T21:44:03.154Z,19.23
2023-06-22T21:47:12.783Z,19.20
2023-06-22T21:50:22.473Z,19.17
2023-06-22T21:53:30.815Z,19.13
2023-06-22T21:56:39.083Z,19.06
2023-06-22T21:59:47.328Z,18.90
2023-06-22T22:02:57.222Z,18.73
2023-06-22T22:06:06.044Z,18.68
2023-06-22T22:09:14.513Z,18.61
2023-06-22T22:12:22.905Z,18.58
2023-06-22T22:15:33.143Z,18.39
2023-06-22T22:18:43.070Z,18.45
2023-06-22T22:21:51.234Z,18.43
2023-06-22T22:24:59.436Z,18.50
2023-06-22T22:28:07.802Z,18.45
2023-06-22T22:31:16.085Z,18.55
2023-06-22T22:34:25.706Z,18.58
2023-06-22T22:37:33.967Z,18.50
2023-06-22T22:40:42.252Z,18.42
2023-06-22T22:43:50.535Z,18.40
2023-06-22T22:47:00.094Z,18.42
2023-06-22T22:50:10.795Z,18.25
2023-06-22T22:53:19.151Z,18.33
2023-06-22T22:56:27.338Z,18.17
2023-06-22T22:59:35.473Z,18.19
2023-06-22T23:02:44.462Z,18.31
2023-06-22T23:05:54.061Z,18.38
2023-06-22T23:09:02.304Z,18.30
2023-06-22T23:12:11.351Z,18.37
2023-06-22T23:15:19.945Z,18.27
2023-06-22T23:18:28.147Z,18.26
2023-06-22T23:21:37.858Z,18.24
2023-06-22T23:24:46.006Z,18.02
2023-06-22T23:27:54.437Z,18.13
2023-06-22T23:31:04.674Z,18.13
2023-06-22T23:34:13.089Z,18.24
2023-06-22T23:37:22.604Z,18.01
2023-06-22T23:40:31.853Z,17.93
2023-06-22T23:43:41.192Z,17.83
2023-06-22T23:46:49.505Z,17.54
2023-06-22T23:49:57.912Z,17.62
2023-06-22T23:53:09.905Z,17.36
2023-06-22T23:56:18.119Z,17.24
2023-06-22T23:59:27.226Z,17.25
